sensor_id;sensor_type;location;lat;lon;timestamp;P1;durP1;ratioP1;P2;durP2;ratioP2
4290;SDS011;2159;50.906;7.152;2024-02-21T00:02:03;8.07;;;4.27;;
4290;SDS011;2159;50.906;7.152;2024-02-21T00:04:31;8.20;;;4.70;;
4290;SDS011;2159;50.906;7.152;2024-02-21T00:06:59;7.53;;;3.97;;
4290;SDS011;2159;50.906;7.152;2024-02-21T00:09:28;9.37;;;4.03;;
4290;SDS011;2159;50.906;7.152;2024-02-21T00:11:56;12.87;;;4.10;;
4290;SDS011;2159;50.906;7.152;2024-02-21T00:14:25;9.97;;;4.87;;
4290;SDS011;2159;50.906;7.152;2024-02-21T00:16:52;12.83;;;4.80;;
4290;SDS011;2159;50.906;7.152;2024-02-21T00:19:20;10.20;;;4.60;;
4290;SDS011;2159;50.906;7.152;2024-02-21T00:21:47;10.30;;;4.33;;
4290;SDS011;2159;50.906;7.152;2024-02-21T00:24:15;5.87;;;4.00;;
4290;SDS011;2159;50.906;7.152;2024-02-21T00:26:44;7.90;;;4.20;;
4290;SDS011;2159;50.906;7.152;2024-02-21T00:29:11;8.60;;;4.27;;
4290;SDS011;2159;50.906;7.152;2024-02-21T00:31:39;9.10;;;4.13;;
4290;SDS011;2159;50.906;7.152;2024-02-21T00:34:07;11.70;;;3.90;;
4290;SDS011;2159;50.906;7.152;2024-02-21T00:36:34;8.50;;;4.00;;
4290;SDS011;2159;50.906;7.152;2024-02-21T00:39:02;9.40;;;4.50;;
4290;SDS011;2159;50.906;7.152;2024-02-21T00:41:29;7.73;;;4.33;;
4290;SDS011;2159;50.906;7.152;2024-02-21T00:43:58;11.43;;;4.80;;
4290;SDS011;2159;50.906;7.152;2024-02-21T00:46:26;7.27;;;4.30;;
4290;SDS011;2159;50.906;7.152;2024-02-21T00:48:53;7.20;;;4.47;;
4290;SDS011;2159;50.906;7.152;2024-02-21T00:51:21;9.43;;;4.73;;
4290;SDS011;2159;50.906;7.152;2024-02-21T00:53:48;7.63;;;4.13;;
4290;SDS011;2159;50.906;7.152;2024-02-21T00:56:16;8.23;;;4.13;;
4290;SDS011;2159;50.906;7.152;2024-02-21T00:58:43;6.50;;;3.60;;
4290;SDS011;2159;50.906;7.152;2024-02-21T01:01:12;7.47;;;4.03;;
4290;SDS011;2159;50.906;7.152;2024-02-21T01:03:40;6.43;;;4.07;;
4290;SDS011;2159;50.906;7.152;2024-02-21T01:06:07;9.33;;;4.20;;
4290;SDS011;2159;50.906;7.152;2024-02-21T01:08:35;10.97;;;4.57;;
4290;SDS011;2159;50.906;7.152;2024-02-21T01:11:03;11.33;;;4.57;;
4290;SDS011;2159;50.906;7.152;2024-02-21T01:13:30;10.10;;;4.33;;
4290;SDS011;2159;50.906;7.152;2024-02-21T01:15:58;10.90;;;5.30;;
4290;SDS011;2159;50.906;7.152;2024-02-21T01:18:27;8.40;;;4.77;;
4290;SDS011;2159;50.906;7.152;2024-02-21T01:20:54;8.77;;;4.70;;
4290;SDS011;2159;50.906;7.152;2024-02-21T01:23:22;7.80;;;4.20;;
4290;SDS011;2159;50.906;7.152;2024-02-21T01:25:50;13.00;;;5.07;;
4290;SDS011;2159;50.906;7.152;2024-02-21T01:28:17;8.50;;;4.27;;
4290;SDS011;2159;50.906;7.152;2024-02-21T01:30:48;12.50;;;4.37;;
4290;SDS011;2159;50.906;7.152;2024-02-21T01:33:15;9.20;;;4.60;;
4290;SDS011;2159;50.906;7.152;2024-02-21T01:35:44;10.70;;;4.50;;
4290;SDS011;2159;50.906;7.152;2024-02-21T01:38:12;9.93;;;4.60;;
4290;SDS011;2159;50.906;7.152;2024-02-21T01:40:40;12.10;;;4.33;;
4290;SDS011;2159;50.906;7.152;2024-02-21T01:43:15;5.17;;;3.70;;
4290;SDS011;2159;50.906;7.152;2024-02-21T01:45:42;8.00;;;4.50;;
4290;SDS011;2159;50.906;7.152;2024-02-21T01:48:10;9.93;;;3.80;;
4290;SDS011;2159;50.906;7.152;2024-02-21T01:50:37;9.90;;;4.20;;
4290;SDS011;2159;50.906;7.152;2024-02-21T01:53:06;8.10;;;3.97;;
4290;SDS011;2159;50.906;7.152;2024-02-21T01:55:35;5.90;;;3.90;;
4290;SDS011;2159;50.906;7.152;2024-02-21T01:58:02;10.57;;;4.10;;
4290;SDS011;2159;50.906;7.152;2024-02-21T02:00:30;10.37;;;4.20;;
4290;SDS011;2159;50.906;7.152;2024-02-21T02:02:58;9.57;;;4.10;;
4290;SDS011;2159;50.906;7.152;2024-02-21T02:05:26;7.83;;;3.83;;
4290;SDS011;2159;50.906;7.152;2024-02-21T02:07:53;7.90;;;3.60;;
4290;SDS011;2159;50.906;7.152;2024-02-21T02:10:22;11.27;;;3.90;;
4290;SDS011;2159;50.906;7.152;2024-02-21T02:12:50;12.33;;;4.00;;
4290;SDS011;2159;50.906;7.152;2024-02-21T02:15:17;11.33;;;3.80;;
4290;SDS011;2159;50.906;7.152;2024-02-21T02:17:45;6.23;;;3.40;;
4290;SDS011;2159;50.906;7.152;2024-02-21T02:20:12;7.03;;;3.83;;
4290;SDS011;2159;50.906;7.152;2024-02-21T02:22:40;9.40;;;3.97;;
4290;SDS011;2159;50.906;7.152;2024-02-21T02:25:11;6.07;;;3.60;;
4290;SDS011;2159;50.906;7.152;2024-02-21T02:27:41;12.37;;;3.60;;
4290;SDS011;2159;50.906;7.152;2024-02-21T02:30:11;9.40;;;3.40;;
4290;SDS011;2159;50.906;7.152;2024-02-21T02:32:38;7.50;;;3.83;;
4290;SDS011;2159;50.906;7.152;2024-02-21T02:35:06;9.83;;;3.50;;
4290;SDS011;2159;50.906;7.152;2024-02-21T02:37:33;8.10;;;3.83;;
4290;SDS011;2159;50.906;7.152;2024-02-21T02:40:01;10.80;;;3.80;;
4290;SDS011;2159;50.906;7.152;2024-02-21T02:42:30;7.20;;;3.63;;
4290;SDS011;2159;50.906;7.152;2024-02-21T02:44:57;10.50;;;3.83;;
4290;SDS011;2159;50.906;7.152;2024-02-21T02:47:25;6.57;;;4.00;;
4290;SDS011;2159;50.906;7.152;2024-02-21T02:49:52;6.87;;;3.90;;
4290;SDS011;2159;50.906;7.152;2024-02-21T02:52:20;9.77;;;4.07;;
4290;SDS011;2159;50.906;7.152;2024-02-21T02:54:48;8.30;;;3.63;;
4290;SDS011;2159;50.906;7.152;2024-02-21T02:57:18;12.63;;;4.03;;
4290;SDS011;2159;50.906;7.152;2024-02-21T02:59:48;9.00;;;3.70;;
4290;SDS011;2159;50.906;7.152;2024-02-21T03:02:15;6.43;;;3.40;;
4290;SDS011;2159;50.906;7.152;2024-02-21T03:04:43;5.10;;;3.73;;
4290;SDS011;2159;50.906;7.152;2024-02-21T03:07:11;12.53;;;4.20;;
4290;SDS011;2159;50.906;7.152;2024-02-21T03:09:38;10.70;;;3.73;;
4290;SDS011;2159;50.906;7.152;2024-02-21T03:12:06;7.83;;;3.93;;
4290;SDS011;2159;50.906;7.152;2024-02-21T03:14:34;6.60;;;3.70;;
4290;SDS011;2159;50.906;7.152;2024-02-21T03:17:03;9.07;;;3.70;;
4290;SDS011;2159;50.906;7.152;2024-02-21T03:19:31;11.33;;;3.90;;
4290;SDS011;2159;50.906;7.152;2024-02-21T03:21:59;6.93;;;3.47;;
4290;SDS011;2159;50.906;7.152;2024-02-21T03:24:26;7.03;;;4.13;;
4290;SDS011;2159;50.906;7.152;2024-02-21T03:26:56;6.53;;;3.57;;
4290;SDS011;2159;50.906;7.152;2024-02-21T03:29:25;12.20;;;4.80;;
4290;SDS011;2159;50.906;7.152;2024-02-21T03:31:52;6.10;;;3.63;;
4290;SDS011;2159;50.906;7.152;2024-02-21T03:34:21;7.40;;;3.33;;
4290;SDS011;2159;50.906;7.152;2024-02-21T03:36:49;6.27;;;3.60;;
4290;SDS011;2159;50.906;7.152;2024-02-21T03:39:16;8.00;;;3.60;;
4290;SDS011;2159;50.906;7.152;2024-02-21T03:41:44;8.20;;;3.70;;
4290;SDS011;2159;50.906;7.152;2024-02-21T03:44:11;5.90;;;3.47;;
4290;SDS011;2159;50.906;7.152;2024-02-21T03:46:39;11.33;;;3.90;;
4290;SDS011;2159;50.906;7.152;2024-02-21T03:49:07;7.37;;;3.60;;
4290;SDS011;2159;50.906;7.152;2024-02-21T03:51:36;5.73;;;3.20;;
4290;SDS011;2159;50.906;7.152;2024-02-21T03:54:03;11.33;;;4.03;;
4290;SDS011;2159;50.906;7.152;2024-02-21T03:56:31;12.57;;;3.73;;
4290;SDS011;2159;50.906;7.152;2024-02-21T03:58:58;9.60;;;3.53;;
4290;SDS011;2159;50.906;7.152;2024-02-21T04:01:26;9.00;;;3.50;;
4290;SDS011;2159;50.906;7.152;2024-02-21T04:03:54;4.90;;;3.07;;
4290;SDS011;2159;50.906;7.152;2024-02-21T04:06:21;9.83;;;3.90;;
4290;SDS011;2159;50.906;7.152;2024-02-21T04:08:50;11.33;;;3.50;;
4290;SDS011;2159;50.906;7.152;2024-02-21T04:11:17;6.87;;;3.40;;
4290;SDS011;2159;50.906;7.152;2024-02-21T04:13:45;6.70;;;3.23;;
4290;SDS011;2159;50.906;7.152;2024-02-21T04:16:15;8.10;;;3.40;;
4290;SDS011;2159;50.906;7.152;2024-02-21T04:18:43;7.97;;;3.40;;
4290;SDS011;2159;50.906;7.152;2024-02-21T04:21:13;9.03;;;3.57;;
4290;SDS011;2159;50.906;7.152;2024-02-21T04:23:41;10.20;;;3.80;;
4290;SDS011;2159;50.906;7.152;2024-02-21T04:26:10;6.97;;;3.33;;
4290;SDS011;2159;50.906;7.152;2024-02-21T04:28:38;7.97;;;3.40;;
4290;SDS011;2159;50.906;7.152;2024-02-21T04:31:06;11.40;;;3.37;;
4290;SDS011;2159;50.906;7.152;2024-02-21T04:33:33;7.73;;;3.43;;
4290;SDS011;2159;50.906;7.152;2024-02-21T04:36:01;10.90;;;3.67;;
4290;SDS011;2159;50.906;7.152;2024-02-21T04:38:28;7.33;;;3.60;;
4290;SDS011;2159;50.906;7.152;2024-02-21T04:40:56;8.07;;;3.43;;
4290;SDS011;2159;50.906;7.152;2024-02-21T04:43:26;8.00;;;3.97;;
4290;SDS011;2159;50.906;7.152;2024-02-21T04:45:53;9.27;;;3.30;;
4290;SDS011;2159;50.906;7.152;2024-02-21T04:48:21;5.80;;;3.40;;
4290;SDS011;2159;50.906;7.152;2024-02-21T04:50:48;7.13;;;3.57;;
4290;SDS011;2159;50.906;7.152;2024-02-21T04:53:16;7.03;;;3.30;;
4290;SDS011;2159;50.906;7.152;2024-02-21T04:55:43;8.20;;;3.80;;
4290;SDS011;2159;50.906;7.152;2024-02-21T04:58:11;7.70;;;3.20;;
4290;SDS011;2159;50.906;7.152;2024-02-21T05:00:40;11.93;;;3.30;;
4290;SDS011;2159;50.906;7.152;2024-02-21T05:03:07;5.00;;;3.07;;
4290;SDS011;2159;50.906;7.152;2024-02-21T05:05:35;5.10;;;2.90;;
4290;SDS011;2159;50.906;7.152;2024-02-21T05:08:03;9.83;;;3.10;;
4290;SDS011;2159;50.906;7.152;2024-02-21T05:10:31;7.30;;;3.10;;
4290;SDS011;2159;50.906;7.152;2024-02-21T05:12:59;8.50;;;3.27;;
4290;SDS011;2159;50.906;7.152;2024-02-21T05:15:27;8.93;;;3.17;;
4290;SDS011;2159;50.906;7.152;2024-02-21T05:17:55;7.70;;;3.13;;
4290;SDS011;2159;50.906;7.152;2024-02-21T05:20:23;5.33;;;3.43;;
4290;SDS011;2159;50.906;7.152;2024-02-21T05:22:51;6.33;;;2.90;;
4290;SDS011;2159;50.906;7.152;2024-02-21T05:25:18;10.23;;;3.37;;
4290;SDS011;2159;50.906;7.152;2024-02-21T05:27:46;8.10;;;3.33;;
4290;SDS011;2159;50.906;7.152;2024-02-21T05:30:14;6.70;;;3.60;;
4290;SDS011;2159;50.906;7.152;2024-02-21T05:32:42;7.27;;;3.00;;
4290;SDS011;2159;50.906;7.152;2024-02-21T05:35:11;6.77;;;2.93;;
4290;SDS011;2159;50.906;7.152;2024-02-21T05:37:38;6.20;;;3.17;;
4290;SDS011;2159;50.906;7.152;2024-02-21T05:40:06;11.00;;;2.90;;
4290;SDS011;2159;50.906;7.152;2024-02-21T05:42:34;5.13;;;3.40;;
4290;SDS011;2159;50.906;7.152;2024-02-21T05:45:01;5.73;;;3.27;;
4290;SDS011;2159;50.906;7.152;2024-02-21T05:47:29;6.80;;;3.00;;
4290;SDS011;2159;50.906;7.152;2024-02-21T05:49:57;6.57;;;3.23;;
4290;SDS011;2159;50.906;7.152;2024-02-21T05:52:26;8.70;;;3.30;;
4290;SDS011;2159;50.906;7.152;2024-02-21T05:54:53;6.87;;;2.83;;
4290;SDS011;2159;50.906;7.152;2024-02-21T05:57:21;10.10;;;3.30;;
4290;SDS011;2159;50.906;7.152;2024-02-21T05:59:48;10.77;;;3.50;;
4290;SDS011;2159;50.906;7.152;2024-02-21T06:02:16;8.33;;;3.00;;
4290;SDS011;2159;50.906;7.152;2024-02-21T06:04:43;8.37;;;2.90;;
4290;SDS011;2159;50.906;7.152;2024-02-21T06:07:12;4.97;;;2.90;;
4290;SDS011;2159;50.906;7.152;2024-02-21T06:09:41;6.80;;;3.03;;
4290;SDS011;2159;50.906;7.152;2024-02-21T06:12:09;7.03;;;3.23;;
4290;SDS011;2159;50.906;7.152;2024-02-21T06:14:37;8.77;;;3.07;;
4290;SDS011;2159;50.906;7.152;2024-02-21T06:17:04;6.30;;;3.40;;
4290;SDS011;2159;50.906;7.152;2024-02-21T06:19:32;6.30;;;3.00;;
4290;SDS011;2159;50.906;7.152;2024-02-21T06:21:59;6.20;;;3.33;;
4290;SDS011;2159;50.906;7.152;2024-02-21T06:24:27;8.73;;;3.30;;
4290;SDS011;2159;50.906;7.152;2024-02-21T06:26:55;11.23;;;3.40;;
4290;SDS011;2159;50.906;7.152;2024-02-21T06:29:23;7.23;;;3.10;;
4290;SDS011;2159;50.906;7.152;2024-02-21T06:31:50;6.03;;;2.83;;
4290;SDS011;2159;50.906;7.152;2024-02-21T06:34:18;6.30;;;3.10;;
4290;SDS011;2159;50.906;7.152;2024-02-21T06:36:46;7.70;;;3.07;;
4290;SDS011;2159;50.906;7.152;2024-02-21T06:39:13;10.80;;;3.40;;
4290;SDS011;2159;50.906;7.152;2024-02-21T06:41:41;3.00;;;2.50;;
4290;SDS011;2159;50.906;7.152;2024-02-21T06:44:10;6.30;;;3.23;;
4290;SDS011;2159;50.906;7.152;2024-02-21T06:46:37;6.70;;;3.23;;
4290;SDS011;2159;50.906;7.152;2024-02-21T06:49:05;6.63;;;3.07;;
4290;SDS011;2159;50.906;7.152;2024-02-21T06:51:33;4.37;;;2.30;;
4290;SDS011;2159;50.906;7.152;2024-02-21T06:54:00;9.63;;;2.90;;
4290;SDS011;2159;50.906;7.152;2024-02-21T06:56:28;6.47;;;2.70;;
4290;SDS011;2159;50.906;7.152;2024-02-21T06:58:55;5.63;;;2.93;;
4290;SDS011;2159;50.906;7.152;2024-02-21T07:01:25;5.80;;;2.63;;
4290;SDS011;2159;50.906;7.152;2024-02-21T07:03:53;7.60;;;2.87;;
4290;SDS011;2159;50.906;7.152;2024-02-21T07:06:20;4.80;;;2.90;;
4290;SDS011;2159;50.906;7.152;2024-02-21T07:08:48;6.47;;;3.30;;
4290;SDS011;2159;50.906;7.152;2024-02-21T07:11:15;9.10;;;3.00;;
4290;SDS011;2159;50.906;7.152;2024-02-21T07:13:43;7.73;;;3.30;;
4290;SDS011;2159;50.906;7.152;2024-02-21T07:16:10;8.87;;;2.93;;
4290;SDS011;2159;50.906;7.152;2024-02-21T07:18:39;3.80;;;2.60;;
4290;SDS011;2159;50.906;7.152;2024-02-21T07:21:07;6.37;;;3.00;;
4290;SDS011;2159;50.906;7.152;2024-02-21T07:23:34;6.57;;;2.80;;
4290;SDS011;2159;50.906;7.152;2024-02-21T07:26:03;14.80;;;2.93;;
4290;SDS011;2159;50.906;7.152;2024-02-21T07:28:31;4.37;;;2.67;;
4290;SDS011;2159;50.906;7.152;2024-02-21T07:30:58;7.03;;;3.40;;
4290;SDS011;2159;50.906;7.152;2024-02-21T07:33:26;6.20;;;2.67;;
4290;SDS011;2159;50.906;7.152;2024-02-21T07:35:55;6.40;;;2.57;;
4290;SDS011;2159;50.906;7.152;2024-02-21T07:38:23;6.20;;;3.30;;
4290;SDS011;2159;50.906;7.152;2024-02-21T07:40:51;8.73;;;2.83;;
4290;SDS011;2159;50.906;7.152;2024-02-21T07:43:18;9.57;;;3.10;;
4290;SDS011;2159;50.906;7.152;2024-02-21T07:45:48;6.33;;;2.70;;
4290;SDS011;2159;50.906;7.152;2024-02-21T07:48:16;6.43;;;3.00;;
4290;SDS011;2159;50.906;7.152;2024-02-21T07:50:45;6.67;;;3.13;;
4290;SDS011;2159;50.906;7.152;2024-02-21T07:53:14;6.33;;;3.27;;
4290;SDS011;2159;50.906;7.152;2024-02-21T07:55:42;6.10;;;3.50;;
4290;SDS011;2159;50.906;7.152;2024-02-21T07:58:09;7.30;;;3.27;;
4290;SDS011;2159;50.906;7.152;2024-02-21T08:00:37;6.87;;;2.93;;
4290;SDS011;2159;50.906;7.152;2024-02-21T08:03:04;7.70;;;3.20;;
4290;SDS011;2159;50.906;7.152;2024-02-21T08:05:33;11.97;;;3.33;;
4290;SDS011;2159;50.906;7.152;2024-02-21T08:08:01;5.40;;;3.27;;
4290;SDS011;2159;50.906;7.152;2024-02-21T08:10:30;5.70;;;3.00;;
4290;SDS011;2159;50.906;7.152;2024-02-21T08:12:58;8.03;;;3.27;;
4290;SDS011;2159;50.906;7.152;2024-02-21T08:15:25;8.57;;;3.40;;
4290;SDS011;2159;50.906;7.152;2024-02-21T08:17:55;11.43;;;3.27;;
4290;SDS011;2159;50.906;7.152;2024-02-21T08:20:26;6.70;;;3.23;;
4290;SDS011;2159;50.906;7.152;2024-02-21T08:22:54;4.67;;;3.20;;
4290;SDS011;2159;50.906;7.152;2024-02-21T08:25:21;8.43;;;3.50;;
4290;SDS011;2159;50.906;7.152;2024-02-21T08:27:50;6.90;;;3.30;;
4290;SDS011;2159;50.906;7.152;2024-02-21T08:30:18;5.27;;;3.20;;
4290;SDS011;2159;50.906;7.152;2024-02-21T08:32:46;8.20;;;3.60;;
4290;SDS011;2159;50.906;7.152;2024-02-21T08:35:14;6.17;;;3.07;;
4290;SDS011;2159;50.906;7.152;2024-02-21T08:37:41;9.10;;;3.20;;
4290;SDS011;2159;50.906;7.152;2024-02-21T08:40:09;7.20;;;3.50;;
4290;SDS011;2159;50.906;7.152;2024-02-21T08:42:38;9.70;;;3.43;;
4290;SDS011;2159;50.906;7.152;2024-02-21T08:45:08;10.20;;;3.60;;
4290;SDS011;2159;50.906;7.152;2024-02-21T08:47:36;11.50;;;3.77;;
4290;SDS011;2159;50.906;7.152;2024-02-21T08:50:04;6.57;;;2.83;;
4290;SDS011;2159;50.906;7.152;2024-02-21T08:52:44;10.60;;;3.37;;
4290;SDS011;2159;50.906;7.152;2024-02-21T08:55:12;7.27;;;3.20;;
4290;SDS011;2159;50.906;7.152;2024-02-21T08:57:39;12.27;;;3.43;;
4290;SDS011;2159;50.906;7.152;2024-02-21T09:00:09;5.67;;;3.23;;
4290;SDS011;2159;50.906;7.152;2024-02-21T09:02:37;8.73;;;3.27;;
4290;SDS011;2159;50.906;7.152;2024-02-21T09:05:05;11.53;;;2.80;;
4290;SDS011;2159;50.906;7.152;2024-02-21T09:07:33;9.40;;;3.73;;
4290;SDS011;2159;50.906;7.152;2024-02-21T09:10:00;5.53;;;3.20;;
4290;SDS011;2159;50.906;7.152;2024-02-21T09:12:29;6.43;;;3.17;;
4290;SDS011;2159;50.906;7.152;2024-02-21T09:14:56;8.23;;;2.83;;
4290;SDS011;2159;50.906;7.152;2024-02-21T09:17:25;9.00;;;3.57;;
4290;SDS011;2159;50.906;7.152;2024-02-21T09:19:55;8.67;;;3.30;;
4290;SDS011;2159;50.906;7.152;2024-02-21T09:22:26;5.63;;;3.00;;
4290;SDS011;2159;50.906;7.152;2024-02-21T09:24:54;7.63;;;3.40;;
4290;SDS011;2159;50.906;7.152;2024-02-21T09:27:21;5.37;;;3.00;;
4290;SDS011;2159;50.906;7.152;2024-02-21T09:29:49;8.70;;;3.33;;
4290;SDS011;2159;50.906;7.152;2024-02-21T09:32:17;7.70;;;3.20;;
4290;SDS011;2159;50.906;7.152;2024-02-21T09:34:46;8.03;;;3.20;;
4290;SDS011;2159;50.906;7.152;2024-02-21T09:37:14;6.97;;;2.90;;
4290;SDS011;2159;50.906;7.152;2024-02-21T09:39:41;7.27;;;3.00;;
4290;SDS011;2159;50.906;7.152;2024-02-21T09:42:10;9.43;;;3.40;;
4290;SDS011;2159;50.906;7.152;2024-02-21T09:44:38;8.13;;;3.93;;
4290;SDS011;2159;50.906;7.152;2024-02-21T09:47:06;6.70;;;3.10;;
4290;SDS011;2159;50.906;7.152;2024-02-21T09:49:34;6.20;;;2.87;;
4290;SDS011;2159;50.906;7.152;2024-02-21T09:52:06;4.30;;;2.73;;
4290;SDS011;2159;50.906;7.152;2024-02-21T09:54:34;9.60;;;3.53;;
4290;SDS011;2159;50.906;7.152;2024-02-21T09:57:02;4.80;;;2.90;;
4290;SDS011;2159;50.906;7.152;2024-02-21T09:59:30;8.43;;;3.27;;
4290;SDS011;2159;50.906;7.152;2024-02-21T10:01:58;5.83;;;2.60;;
4290;SDS011;2159;50.906;7.152;2024-02-21T10:04:27;4.93;;;2.67;;
4290;SDS011;2159;50.906;7.152;2024-02-21T10:06:55;8.90;;;2.90;;
4290;SDS011;2159;50.906;7.152;2024-02-21T10:09:24;6.47;;;2.80;;
4290;SDS011;2159;50.906;7.152;2024-02-21T10:11:54;7.90;;;2.60;;
4290;SDS011;2159;50.906;7.152;2024-02-21T10:14:22;10.23;;;3.60;;
4290;SDS011;2159;50.906;7.152;2024-02-21T10:16:56;9.13;;;3.23;;
4290;SDS011;2159;50.906;7.152;2024-02-21T10:19:24;9.07;;;3.40;;
4290;SDS011;2159;50.906;7.152;2024-02-21T10:22:01;6.53;;;2.97;;
4290;SDS011;2159;50.906;7.152;2024-02-21T10:24:31;6.00;;;3.17;;
4290;SDS011;2159;50.906;7.152;2024-02-21T10:27:01;9.47;;;3.10;;
4290;SDS011;2159;50.906;7.152;2024-02-21T10:29:29;9.83;;;3.17;;
4290;SDS011;2159;50.906;7.152;2024-02-21T10:32:04;6.87;;;3.30;;
4290;SDS011;2159;50.906;7.152;2024-02-21T10:34:31;6.10;;;3.53;;
4290;SDS011;2159;50.906;7.152;2024-02-21T10:36:59;7.40;;;2.90;;
4290;SDS011;2159;50.906;7.152;2024-02-21T10:39:27;7.73;;;2.80;;
4290;SDS011;2159;50.906;7.152;2024-02-21T10:41:59;8.43;;;3.27;;
4290;SDS011;2159;50.906;7.152;2024-02-21T10:44:27;6.97;;;3.00;;
4290;SDS011;2159;50.906;7.152;2024-02-21T10:46:55;3.93;;;3.00;;
4290;SDS011;2159;50.906;7.152;2024-02-21T10:49:24;9.77;;;3.20;;
4290;SDS011;2159;50.906;7.152;2024-02-21T10:51:54;8.47;;;2.90;;
4290;SDS011;2159;50.906;7.152;2024-02-21T10:54:29;11.17;;;3.20;;
4290;SDS011;2159;50.906;7.152;2024-02-21T10:56:58;7.17;;;2.90;;
4290;SDS011;2159;50.906;7.152;2024-02-21T10:59:28;8.00;;;3.43;;
4290;SDS011;2159;50.906;7.152;2024-02-21T11:01:56;8.37;;;3.10;;
4290;SDS011;2159;50.906;7.152;2024-02-21T11:04:25;7.27;;;2.87;;
4290;SDS011;2159;50.906;7.152;2024-02-21T11:06:53;5.80;;;3.10;;
4290;SDS011;2159;50.906;7.152;2024-02-21T11:09:29;4.57;;;2.50;;
4290;SDS011;2159;50.906;7.152;2024-02-21T11:11:56;5.83;;;2.77;;
4290;SDS011;2159;50.906;7.152;2024-02-21T11:14:27;9.53;;;3.17;;
4290;SDS011;2159;50.906;7.152;2024-02-21T11:16:54;5.40;;;3.00;;
4290;SDS011;2159;50.906;7.152;2024-02-21T11:19:23;6.77;;;2.83;;
4290;SDS011;2159;50.906;7.152;2024-02-21T11:21:52;3.50;;;2.10;;
4290;SDS011;2159;50.906;7.152;2024-02-21T11:24:27;6.67;;;2.50;;
4290;SDS011;2159;50.906;7.152;2024-02-21T11:26:55;6.30;;;2.60;;
4290;SDS011;2159;50.906;7.152;2024-02-21T11:29:23;5.77;;;2.80;;
4290;SDS011;2159;50.906;7.152;2024-02-21T11:31:52;3.53;;;2.33;;
4290;SDS011;2159;50.906;7.152;2024-02-21T11:34:20;10.30;;;2.77;;
4290;SDS011;2159;50.906;7.152;2024-02-21T11:36:48;7.17;;;2.57;;
4290;SDS011;2159;50.906;7.152;2024-02-21T11:39:20;7.70;;;2.93;;
4290;SDS011;2159;50.906;7.152;2024-02-21T11:41:48;4.50;;;2.80;;
4290;SDS011;2159;50.906;7.152;2024-02-21T11:44:15;4.00;;;2.03;;
4290;SDS011;2159;50.906;7.152;2024-02-21T11:46:42;5.13;;;2.30;;
4290;SDS011;2159;50.906;7.152;2024-02-21T11:49:12;4.70;;;2.70;;
4290;SDS011;2159;50.906;7.152;2024-02-21T11:51:40;6.73;;;2.80;;
4290;SDS011;2159;50.906;7.152;2024-02-21T11:54:07;8.13;;;2.87;;
4290;SDS011;2159;50.906;7.152;2024-02-21T11:56:35;5.83;;;2.70;;
4290;SDS011;2159;50.906;7.152;2024-02-21T11:59:02;8.97;;;2.80;;
4290;SDS011;2159;50.906;7.152;2024-02-21T12:01:32;5.87;;;2.60;;
4290;SDS011;2159;50.906;7.152;2024-02-21T12:04:00;6.87;;;2.77;;
4290;SDS011;2159;50.906;7.152;2024-02-21T12:06:32;5.40;;;2.50;;
4290;SDS011;2159;50.906;7.152;2024-02-21T12:08:59;4.87;;;2.20;;
4290;SDS011;2159;50.906;7.152;2024-02-21T12:11:28;6.60;;;2.50;;
4290;SDS011;2159;50.906;7.152;2024-02-21T12:13:59;7.63;;;2.80;;
4290;SDS011;2159;50.906;7.152;2024-02-21T12:16:27;7.37;;;3.00;;
4290;SDS011;2159;50.906;7.152;2024-02-21T12:18:56;6.80;;;2.43;;
4290;SDS011;2159;50.906;7.152;2024-02-21T12:21:24;5.53;;;2.33;;
4290;SDS011;2159;50.906;7.152;2024-02-21T12:23:53;5.83;;;3.03;;
4290;SDS011;2159;50.906;7.152;2024-02-21T12:26:20;4.80;;;2.20;;
4290;SDS011;2159;50.906;7.152;2024-02-21T12:28:48;5.70;;;2.37;;
4290;SDS011;2159;50.906;7.152;2024-02-21T12:31:15;5.00;;;2.43;;
4290;SDS011;2159;50.906;7.152;2024-02-21T12:33:43;7.63;;;2.57;;
4290;SDS011;2159;50.906;7.152;2024-02-21T12:36:11;7.80;;;2.30;;
4290;SDS011;2159;50.906;7.152;2024-02-21T12:38:38;3.40;;;2.30;;
4290;SDS011;2159;50.906;7.152;2024-02-21T12:41:08;9.43;;;2.90;;
4290;SDS011;2159;50.906;7.152;2024-02-21T12:43:35;3.67;;;2.20;;
4290;SDS011;2159;50.906;7.152;2024-02-21T12:46:04;15.27;;;2.90;;
4290;SDS011;2159;50.906;7.152;2024-02-21T12:48:33;4.80;;;2.03;;
4290;SDS011;2159;50.906;7.152;2024-02-21T12:51:01;2.80;;;2.00;;
4290;SDS011;2159;50.906;7.152;2024-02-21T12:53:28;5.03;;;2.23;;
4290;SDS011;2159;50.906;7.152;2024-02-21T12:55:59;5.83;;;2.20;;
4290;SDS011;2159;50.906;7.152;2024-02-21T12:58:28;2.83;;;2.20;;
4290;SDS011;2159;50.906;7.152;2024-02-21T13:00:57;6.20;;;2.40;;
4290;SDS011;2159;50.906;7.152;2024-02-21T13:03:25;6.47;;;2.30;;
4290;SDS011;2159;50.906;7.152;2024-02-21T13:05:56;4.70;;;2.40;;
4290;SDS011;2159;50.906;7.152;2024-02-21T13:08:25;5.17;;;2.87;;
4290;SDS011;2159;50.906;7.152;2024-02-21T13:10:53;6.63;;;2.50;;
4290;SDS011;2159;50.906;7.152;2024-02-21T13:13:21;3.90;;;2.33;;
4290;SDS011;2159;50.906;7.152;2024-02-21T13:15:50;3.63;;;2.30;;
4290;SDS011;2159;50.906;7.152;2024-02-21T13:18:17;4.83;;;2.90;;
4290;SDS011;2159;50.906;7.152;2024-02-21T13:20:45;6.80;;;2.63;;
4290;SDS011;2159;50.906;7.152;2024-02-21T13:23:13;4.80;;;2.63;;
4290;SDS011;2159;50.906;7.152;2024-02-21T13:25:40;7.77;;;2.70;;
4290;SDS011;2159;50.906;7.152;2024-02-21T13:28:08;11.50;;;2.50;;
4290;SDS011;2159;50.906;7.152;2024-02-21T13:30:36;8.33;;;2.80;;
4290;SDS011;2159;50.906;7.152;2024-02-21T13:33:06;4.17;;;2.47;;
4290;SDS011;2159;50.906;7.152;2024-02-21T13:35:36;5.17;;;2.60;;
4290;SDS011;2159;50.906;7.152;2024-02-21T13:38:05;4.27;;;2.37;;
4290;SDS011;2159;50.906;7.152;2024-02-21T13:40:33;6.50;;;2.70;;
4290;SDS011;2159;50.906;7.152;2024-02-21T13:43:00;6.90;;;2.67;;
4290;SDS011;2159;50.906;7.152;2024-02-21T13:45:28;6.50;;;2.43;;
4290;SDS011;2159;50.906;7.152;2024-02-21T13:47:56;7.80;;;2.70;;
4290;SDS011;2159;50.906;7.152;2024-02-21T13:50:29;5.60;;;2.50;;
4290;SDS011;2159;50.906;7.152;2024-02-21T13:52:56;3.93;;;2.43;;
4290;SDS011;2159;50.906;7.152;2024-02-21T13:55:24;7.43;;;2.50;;
4290;SDS011;2159;50.906;7.152;2024-02-21T13:57:53;7.87;;;2.87;;
4290;SDS011;2159;50.906;7.152;2024-02-21T14:00:20;8.17;;;2.30;;
4290;SDS011;2159;50.906;7.152;2024-02-21T14:02:48;5.17;;;2.30;;
4290;SDS011;2159;50.906;7.152;2024-02-21T14:05:15;5.10;;;2.30;;
4290;SDS011;2159;50.906;7.152;2024-02-21T14:07:44;2.23;;;2.10;;
4290;SDS011;2159;50.906;7.152;2024-02-21T14:10:12;3.10;;;2.50;;
4290;SDS011;2159;50.906;7.152;2024-02-21T14:12:39;3.07;;;2.40;;
4290;SDS011;2159;50.906;7.152;2024-02-21T14:15:07;5.10;;;2.10;;
4290;SDS011;2159;50.906;7.152;2024-02-21T14:17:35;7.07;;;2.10;;
4290;SDS011;2159;50.906;7.152;2024-02-21T14:20:02;4.83;;;2.17;;
4290;SDS011;2159;50.906;7.152;2024-02-21T14:22:31;3.60;;;2.20;;
4290;SDS011;2159;50.906;7.152;2024-02-21T14:25:00;3.93;;;2.20;;
4290;SDS011;2159;50.906;7.152;2024-02-21T14:27:28;6.80;;;2.10;;
4290;SDS011;2159;50.906;7.152;2024-02-21T14:29:56;4.50;;;2.00;;
4290;SDS011;2159;50.906;7.152;2024-02-21T14:32:24;5.13;;;2.37;;
4290;SDS011;2159;50.906;7.152;2024-02-21T14:34:51;6.53;;;2.50;;
4290;SDS011;2159;50.906;7.152;2024-02-21T14:37:19;3.50;;;2.00;;
4290;SDS011;2159;50.906;7.152;2024-02-21T14:39:48;3.40;;;2.10;;
4290;SDS011;2159;50.906;7.152;2024-02-21T14:42:17;4.80;;;2.37;;
4290;SDS011;2159;50.906;7.152;2024-02-21T14:44:44;3.07;;;1.90;;
4290;SDS011;2159;50.906;7.152;2024-02-21T14:47:12;2.27;;;2.07;;
4290;SDS011;2159;50.906;7.152;2024-02-21T14:49:39;3.50;;;2.03;;
4290;SDS011;2159;50.906;7.152;2024-02-21T14:52:07;3.70;;;2.17;;
4290;SDS011;2159;50.906;7.152;2024-02-21T14:54:37;6.30;;;2.10;;
4290;SDS011;2159;50.906;7.152;2024-02-21T14:57:05;4.83;;;2.00;;
4290;SDS011;2159;50.906;7.152;2024-02-21T14:59:34;5.23;;;2.47;;
4290;SDS011;2159;50.906;7.152;2024-02-21T15:02:02;4.57;;;2.03;;
4290;SDS011;2159;50.906;7.152;2024-02-21T15:04:29;6.77;;;2.07;;
4290;SDS011;2159;50.906;7.152;2024-02-21T15:06:57;4.90;;;2.17;;
4290;SDS011;2159;50.906;7.152;2024-02-21T15:09:26;4.30;;;1.90;;
4290;SDS011;2159;50.906;7.152;2024-02-21T15:11:54;4.77;;;2.30;;
4290;SDS011;2159;50.906;7.152;2024-02-21T15:14:21;5.37;;;2.00;;
4290;SDS011;2159;50.906;7.152;2024-02-21T15:16:52;7.47;;;2.10;;
4290;SDS011;2159;50.906;7.152;2024-02-21T15:19:20;4.00;;;2.17;;